Time;durP1;ratioP1;P1;durP2;ratioP2;P2;SDS_P1;SDS_P2;PMS_P1;PMS_P2;Temp;Humidity;BMP_temperature;BMP_pressure;BME280_temperature;BME280_humidity;BME280_pressure;Samples;Min_cycle;Max_cycle;Signal;HPM_P1;HPM_P2
2022/10/14 00:00:39;;;;;;;8.75;5.40;;;13.70;83.70;;;;;;5011934;28;20033;-69
2022/10/14 00:03:05;;;;;;;35.38;7.00;;;13.80;83.50;;;;;;5012736;28;20022;-68
2022/10/14 00:05:30;;;;;;;10.88;7.00;;;13.80;83.50;;;;;;5020816;28;20468;-68
2022/10/14 00:07:56;;;;;;;39.33;8.60;;;13.80;83.50;;;;;;5014272;28;20032;-68
2022/10/14 00:10:22;;;;;;;7.13;5.72;;;13.70;83.40;;;;;;4994126;28;20034;-69
2022/10/14 00:12:49;;;;;;;9.38;6.38;;;13.70;83.50;;;;;;5001522;28;20039;-69
2022/10/14 00:15:15;;;;;;;24.25;7.50;;;13.70;83.70;;;;;;5007394;28;20038;-69
2022/10/14 00:17:41;;;;;;;16.70;7.57;;;13.70;83.70;;;;;;5022797;28;20053;-69
2022/10/14 00:20:07;;;;;;;21.75;8.73;;;13.70;83.70;;;;;;5012299;28;20584;-69
2022/10/14 00:22:33;;;;;;;16.98;6.97;;;13.70;83.60;;;;;;5011526;28;20038;-69
2022/10/14 00:24:58;;;;;;;14.27;7.13;;;13.70;83.70;;;;;;4996116;28;20639;-69
2022/10/14 00:27:24;;;;;;;11.60;6.82;;;13.70;83.80;;;;;;5011544;28;20022;-69
2022/10/14 00:29:50;;;;;;;11.52;7.15;;;13.60;83.70;;;;;;5010526;28;20474;-69
2022/10/14 00:32:16;;;;;;;9.93;6.03;;;13.70;83.80;;;;;;4995244;28;20520;-69
2022/10/14 00:34:42;;;;;;;8.77;5.75;;;13.70;83.70;;;;;;4993439;28;20477;-69
2022/10/14 00:37:08;;;;;;;11.50;7.38;;;13.70;83.70;;;;;;5007479;28;20058;-69
2022/10/14 00:39:34;;;;;;;8.38;5.80;;;13.70;83.60;;;;;;5013241;28;20449;-69
2022/10/14 00:42:00;;;;;;;9.88;5.25;;;13.70;83.70;;;;;;5011154;28;20772;-69
2022/10/14 00:44:25;;;;;;;11.00;5.88;;;13.70;83.60;;;;;;4994106;28;20054;-70
2022/10/14 00:46:51;;;;;;;8.20;5.60;;;13.80;83.60;;;;;;4993481;28;20085;-70
2022/10/14 00:49:25;;;;;;;10.77;7.00;;;13.80;83.50;;;;;;4992821;28;20065;-70
2022/10/14 00:51:54;;;;;;;10.30;5.93;;;13.80;83.40;;;;;;5015092;28;20071;-69
2022/10/14 00:54:23;;;;;;;27.58;6.45;;;13.80;83.40;;;;;;5013318;28;20491;-69
2022/10/14 00:56:50;;;;;;;24.05;6.50;;;13.80;83.40;;;;;;5010576;28;20044;-70
2022/10/14 00:59:15;;;;;;;25.88;7.10;;;13.80;83.50;;;;;;5010992;28;20065;-69
2022/10/14 01:01:41;;;;;;;12.05;7.05;;;13.70;83.50;;;;;;5009450;28;20061;-69
2022/10/14 01:04:07;;;;;;;13.48;5.97;;;13.70;83.60;;;;;;5003985;28;20037;-69
2022/10/14 01:06:45;;;;;;;10.27;5.03;;;13.60;83.70;;;;;;5004695;28;20053;-68
2022/10/14 01:09:26;;;;;;;25.85;6.20;;;13.60;83.90;;;;;;4991982;28;20056;-68
2022/10/14 01:12:21;;;;;;;58.72;7.63;;;13.50;83.90;;;;;;4998023;28;20384;-69
2022/10/14 01:14:46;;;;;;;10.32;6.28;;;13.50;83.90;;;;;;4993562;28;20045;-68
2022/10/14 01:17:45;;;;;;;11.38;6.97;;;13.50;84.20;;;;;;5011663;28;20036;-68
2022/10/14 01:20:28;;;;;;;11.30;6.68;;;13.50;84.10;;;;;;4992717;28;20032;-68
2022/10/14 01:23:03;;;;;;;9.85;5.50;;;13.50;84.10;;;;;;5010080;28;20125;-68
2022/10/14 01:25:35;;;;;;;10.05;5.20;;;13.50;84.10;;;;;;4998656;28;20049;-69
2022/10/14 01:28:22;;;;;;;8.25;5.47;;;13.50;84.00;;;;;;4998503;28;20477;-69
2022/10/14 01:30:51;;;;;;;12.38;6.45;;;13.50;84.00;;;;;;5010230;28;20017;-69
2022/10/14 01:33:23;;;;;;;18.08;6.72;;;13.60;84.00;;;;;;4992321;28;20037;-68
2022/10/14 01:36:02;;;;;;;10.77;5.53;;;13.60;83.90;;;;;;5010490;28;20125;-68
2022/10/14 01:38:38;;;;;;;7.40;5.47;;;13.60;83.80;;;;;;5013989;28;20045;-68
2022/10/14 01:41:25;;;;;;;11.82;5.07;;;13.60;83.90;;;;;;5009843;28;20026;-69
2022/10/14 01:43:54;;;;;;;13.43;5.75;;;13.60;83.90;;;;;;4992134;28;20026;-69
2022/10/14 01:46:23;;;;;;;8.77;5.63;;;13.60;83.80;;;;;;5010982;28;20026;-69
2022/10/14 01:48:54;;;;;;;6.97;4.72;;;13.60;83.90;;;;;;5009267;28;20024;-69
2022/10/14 01:51:34;;;;;;;8.70;4.63;;;13.60;83.90;;;;;;4994231;28;20552;-69
2022/10/14 01:54:08;;;;;;;17.83;4.72;;;13.60;83.90;;;;;;5005455;28;20029;-69
2022/10/14 01:56:34;;;;;;;11.70;4.18;;;13.60;83.90;;;;;;5008134;28;20033;-70
2022/10/14 01:59:02;;;;;;;5.00;4.50;;;13.60;83.90;;;;;;5013776;28;20026;-70
2022/10/14 02:01:27;;;;;;;8.18;4.70;;;13.60;83.90;;;;;;5010101;28;20030;-70
2022/10/14 02:03:53;;;;;;;22.20;5.22;;;13.60;83.90;;;;;;5009752;28;20371;-69
2022/10/14 02:06:31;;;;;;;6.97;4.85;;;13.60;83.90;;;;;;4991653;28;20862;-67
2022/10/14 02:09:00;;;;;;;5.55;4.05;;;13.60;83.80;;;;;;5010769;28;20417;-68
2022/10/14 02:11:27;;;;;;;6.00;4.10;;;13.60;83.80;;;;;;5009853;28;20018;-68
2022/10/14 02:14:17;;;;;;;7.07;4.25;;;13.60;83.70;;;;;;4992346;28;20145;-68
2022/10/14 02:16:54;;;;;;;6.47;5.10;;;13.60;83.70;;;;;;5008798;28;20144;-68
2022/10/14 02:19:42;;;;;;;7.05;4.13;;;13.60;83.70;;;;;;5017571;28;20136;-68
2022/10/14 02:22:25;;;;;;;8.10;3.95;;;13.70;83.70;;;;;;5009112;28;20216;-69
2022/10/14 02:24:56;;;;;;;32.08;4.82;;;13.60;83.60;;;;;;5027694;28;20049;-69
2022/10/14 02:27:24;;;;;;;8.82;4.30;;;13.60;83.70;;;;;;5013867;28;20117;-69
2022/10/14 02:29:52;;;;;;;6.65;3.45;;;13.70;83.70;;;;;;4979472;28;20358;-68
2022/10/14 02:32:19;;;;;;;9.60;4.63;;;13.70;83.70;;;;;;5021782;28;20088;-68
2022/10/14 02:34:49;;;;;;;8.95;4.72;;;13.70;83.60;;;;;;5014559;28;20064;-68
2022/10/14 02:37:16;;;;;;;7.13;4.30;;;13.60;83.60;;;;;;4999779;28;20093;-68
2022/10/14 02:40:09;;;;;;;7.32;4.15;;;13.60;83.70;;;;;;5013494;28;20109;-69
2022/10/14 02:42:34;;;;;;;5.85;4.45;;;13.60;83.70;;;;;;5019852;28;20513;-69
2022/10/14 02:45:00;;;;;;;8.05;4.25;;;13.60;83.70;;;;;;4995617;28;20042;-69
2022/10/14 02:47:26;;;;;;;21.27;4.95;;;13.60;83.70;;;;;;5016241;28;20034;-69
2022/10/14 02:49:52;;;;;;;6.95;4.18;;;13.60;83.70;;;;;;4963275;28;20022;-69
2022/10/14 02:52:18;;;;;;;7.15;3.92;;;13.60;83.70;;;;;;5013417;28;20374;-69
2022/10/14 02:54:44;;;;;;;20.77;5.00;;;13.60;83.60;;;;;;4999842;28;20022;-68
2022/10/14 02:57:10;;;;;;;5.90;3.92;;;13.70;83.70;;;;;;5025252;28;20052;-69
2022/10/14 02:59:36;;;;;;;7.85;4.43;;;13.60;83.60;;;;;;5015016;28;20061;-69
2022/10/14 03:02:02;;;;;;;7.30;4.72;;;13.70;83.60;;;;;;4995628;28;20038;-69
2022/10/14 03:04:28;;;;;;;12.23;4.75;;;13.70;83.60;;;;;;5012657;28;20049;-68
2022/10/14 03:06:53;;;;;;;13.18;6.32;;;13.70;83.60;;;;;;5001609;28;20030;-69
2022/10/14 03:09:19;;;;;;;6.60;4.35;;;13.70;83.60;;;;;;5021669;28;20049;-68
2022/10/14 03:11:45;;;;;;;14.10;4.63;;;13.60;83.50;;;;;;5024110;28;20022;-68
2022/10/14 03:14:11;;;;;;;7.80;5.03;;;13.70;83.60;;;;;;5012721;28;20144;-68
2022/10/14 03:16:36;;;;;;;7.25;5.40;;;13.70;83.60;;;;;;5012598;28;20117;-68
2022/10/14 03:19:02;;;;;;;10.63;6.10;;;13.60;83.60;;;;;;5011916;28;20366;-68
2022/10/14 03:21:28;;;;;;;14.70;5.22;;;13.60;83.70;;;;;;5016113;28;20466;-68
2022/10/14 03:23:54;;;;;;;10.75;5.65;;;13.60;83.60;;;;;;5012358;28;20799;-68
2022/10/14 03:26:19;;;;;;;7.47;4.63;;;13.60;83.60;;;;;;5012197;28;20034;-69
2022/10/14 03:28:45;;;;;;;8.45;4.32;;;13.60;83.60;;;;;;5012075;28;20018;-68
2022/10/14 03:31:11;;;;;;;10.55;5.25;;;13.60;83.60;;;;;;5012412;28;20547;-68
2022/10/14 03:33:36;;;;;;;12.85;5.00;;;13.60;83.60;;;;;;5011343;28;20037;-69
2022/10/14 03:36:03;;;;;;;10.88;5.40;;;13.60;83.70;;;;;;5013425;28;20474;-68
2022/10/14 03:38:28;;;;;;;16.17;5.40;;;13.60;83.80;;;;;;5012038;28;20057;-68
2022/10/14 03:40:54;;;;;;;8.60;5.25;;;13.60;83.70;;;;;;5011680;28;20049;-68
2022/10/14 03:43:20;;;;;;;10.13;6.35;;;13.60;83.70;;;;;;5012025;28;20456;-68
2022/10/14 03:45:46;;;;;;;10.20;5.53;;;13.60;83.80;;;;;;4999995;28;20028;-68
2022/10/14 03:48:11;;;;;;;10.05;5.97;;;13.60;83.90;;;;;;5015988;28;20100;-68
2022/10/14 03:50:37;;;;;;;9.23;5.95;;;13.50;83.90;;;;;;5012005;28;20061;-68
2022/10/14 03:53:03;;;;;;;25.38;7.05;;;13.60;84.00;;;;;;5001950;28;20022;-68
2022/10/14 03:55:29;;;;;;;11.45;6.22;;;13.60;84.00;;;;;;5011977;28;20761;-68
2022/10/14 03:57:54;;;;;;;10.35;5.18;;;13.60;84.00;;;;;;5004430;28;20066;-68
2022/10/14 04:00:21;;;;;;;8.40;5.78;;;13.60;84.00;;;;;;5003437;28;20030;-68
2022/10/14 04:02:46;;;;;;;11.73;6.43;;;13.60;83.90;;;;;;5014946;28;20052;-67
2022/10/14 04:05:12;;;;;;;9.93;6.75;;;13.60;83.90;;;;;;4994249;28;20022;-67
2022/10/14 04:07:38;;;;;;;12.43;6.80;;;13.70;83.90;;;;;;5011333;28;20022;-68
2022/10/14 04:10:05;;;;;;;10.75;5.88;;;13.70;84.00;;;;;;5024090;28;20045;-68
2022/10/14 04:12:31;;;;;;;9.90;5.72;;;13.70;83.90;;;;;;5010811;28;20034;-69
2022/10/14 04:14:56;;;;;;;7.47;5.13;;;13.70;83.90;;;;;;5015537;28;20061;-67
2022/10/14 04:17:25;;;;;;;8.13;5.82;;;13.70;83.90;;;;;;5011679;28;20424;-68
2022/10/14 04:19:52;;;;;;;9.45;5.68;;;13.70;83.80;;;;;;5006768;28;20029;-68
2022/10/14 04:22:18;;;;;;;9.48;6.25;;;13.70;83.80;;;;;;4990575;28;20033;-68
2022/10/14 04:24:44;;;;;;;13.18;6.80;;;13.70;83.80;;;;;;4998946;28;20042;-68
2022/10/14 04:27:10;;;;;;;13.68;8.35;;;13.70;83.90;;;;;;4997265;28;20088;-69
2022/10/14 04:29:36;;;;;;;13.68;7.72;;;13.70;83.90;;;;;;5004778;28;20696;-69
2022/10/14 04:32:02;;;;;;;17.45;7.65;;;13.60;84.00;;;;;;4991910;28;20401;-68
2022/10/14 04:34:27;;;;;;;10.57;6.45;;;13.70;84.00;;;;;;4998632;28;20042;-68
2022/10/14 04:36:53;;;;;;;15.10;6.30;;;13.70;84.10;;;;;;5009675;28;20030;-68
2022/10/14 04:39:19;;;;;;;14.93;7.47;;;13.70;84.00;;;;;;4992933;28;20130;-68
2022/10/14 04:41:44;;;;;;;12.60;6.65;;;13.70;84.10;;;;;;5010489;28;20057;-69
2022/10/14 04:44:10;;;;;;;10.55;6.38;;;13.70;84.20;;;;;;4993259;28;20485;-69
2022/10/14 04:46:36;;;;;;;10.57;6.50;;;13.70;84.10;;;;;;5010558;28;20100;-69
2022/10/14 04:49:02;;;;;;;11.30;6.70;;;13.70;84.10;;;;;;4992519;28;20018;-69
2022/10/14 04:51:28;;;;;;;13.45;8.10;;;13.70;84.10;;;;;;4993300;28;20144;-69
2022/10/14 04:53:53;;;;;;;9.70;5.78;;;13.70;84.10;;;;;;5008316;28;20566;-68
2022/10/14 04:56:19;;;;;;;13.45;7.60;;;13.70;84.10;;;;;;5006245;28;20025;-69
2022/10/14 04:58:44;;;;;;;9.77;6.55;;;13.80;84.20;;;;;;4991688;28;20455;-69
2022/10/14 05:01:10;;;;;;;11.93;6.20;;;13.70;84.10;;;;;;4985896;28;20034;-69
2022/10/14 05:03:36;;;;;;;12.20;7.00;;;13.70;84.10;;;;;;5005015;28;20086;-68
2022/10/14 05:06:01;;;;;;;12.27;6.53;;;13.80;84.20;;;;;;4989175;28;20108;-68
2022/10/14 05:08:27;;;;;;;11.20;6.38;;;13.80;84.10;;;;;;5008888;28;20026;-69
2022/10/14 05:10:53;;;;;;;13.57;8.40;;;13.80;84.10;;;;;;5008922;28;20520;-67
2022/10/14 05:13:18;;;;;;;11.07;7.97;;;13.80;84.20;;;;;;5012820;28;20034;-67
2022/10/14 05:15:44;;;;;;;15.52;6.70;;;13.80;84.10;;;;;;5007600;28;20030;-67
2022/10/14 05:18:12;;;;;;;9.93;6.50;;;13.80;84.10;;;;;;5007433;28;20034;-68
2022/10/14 05:20:38;;;;;;;14.65;7.22;;;13.80;84.10;;;;;;5009643;28;20393;-67
2022/10/14 05:23:05;;;;;;;23.13;8.40;;;13.80;84.10;;;;;;5007212;28;20026;-68
2022/10/14 05:25:30;;;;;;;16.02;6.82;;;13.80;84.10;;;;;;5009146;28;20796;-68
2022/10/14 05:27:56;;;;;;;14.00;7.38;;;13.80;84.20;;;;;;5014660;28;20037;-70
2022/10/14 05:30:22;;;;;;;13.30;8.02;;;13.80;84.20;;;;;;5009185;28;20037;-67
2022/10/14 05:32:48;;;;;;;14.23;7.93;;;13.80;84.20;;;;;;5009223;28;20025;-67
2022/10/14 05:35:13;;;;;;;11.82;6.93;;;13.80;84.20;;;;;;5009969;28;20508;-68
2022/10/14 05:37:40;;;;;;;15.13;7.78;;;13.90;84.20;;;;;;5009279;28;20176;-67
2022/10/14 05:40:06;;;;;;;15.25;9.13;;;13.90;84.10;;;;;;5010873;28;20061;-67
2022/10/14 05:42:32;;;;;;;11.75;8.02;;;13.90;84.10;;;;;;5009387;28;20034;-68
2022/10/14 05:44:57;;;;;;;11.77;6.90;;;13.90;84.20;;;;;;5022762;28;20313;-68
2022/10/14 05:47:23;;;;;;;12.35;8.50;;;13.90;84.20;;;;;;5009681;28;20041;-68
2022/10/14 05:49:49;;;;;;;11.10;7.53;;;13.90;84.20;;;;;;4991587;28;20048;-69
2022/10/14 05:52:14;;;;;;;8.68;6.90;;;13.90;84.20;;;;;;5000441;28;20390;-67
2022/10/14 05:54:40;;;;;;;15.48;8.02;;;13.90;84.20;;;;;;5009193;28;20037;-68
2022/10/14 05:57:06;;;;;;;12.90;7.93;;;13.90;84.30;;;;;;4992403;28;20104;-68
2022/10/14 05:59:33;;;;;;;13.13;8.05;;;13.90;84.30;;;;;;5009214;28;20050;-67
2022/10/14 06:01:59;;;;;;;13.05;7.47;;;13.90;84.30;;;;;;4992431;28;20145;-68
2022/10/14 06:04:25;;;;;;;13.65;8.23;;;14.00;84.30;;;;;;5009504;28;20034;-68
2022/10/14 06:06:51;;;;;;;13.63;8.07;;;14.00;84.30;;;;;;5009297;28;20029;-69
2022/10/14 06:09:16;;;;;;;14.13;8.50;;;14.00;84.30;;;;;;4995448;28;20046;-68
2022/10/14 06:11:43;;;;;;;9.68;7.13;;;14.00;84.30;;;;;;5014007;28;20022;-68
2022/10/14 06:14:08;;;;;;;14.10;8.15;;;14.00;84.30;;;;;;5009537;28;20041;-69
2022/10/14 06:16:34;;;;;;;12.85;6.30;;;14.00;84.40;;;;;;5017958;28;20026;-68
2022/10/14 06:19:00;;;;;;;9.82;6.85;;;14.00;84.30;;;;;;5008691;28;20033;-67
2022/10/14 06:21:26;;;;;;;10.90;7.68;;;14.10;84.30;;;;;;5008815;28;20357;-67
2022/10/14 06:23:52;;;;;;;8.20;6.45;;;14.10;84.30;;;;;;5009010;28;20030;-67
2022/10/14 06:26:17;;;;;;;8.25;5.70;;;14.10;84.30;;;;;;5015535;28;20038;-67
2022/10/14 06:28:43;;;;;;;8.98;5.95;;;14.10;84.30;;;;;;5012511;28;20477;-68
2022/10/14 06:31:09;;;;;;;6.82;5.85;;;14.10;84.30;;;;;;5017668;28;20511;-69
2022/10/14 06:33:34;;;;;;;9.48;6.22;;;14.10;84.30;;;;;;5010918;28;20448;-68
2022/10/14 06:36:02;;;;;;;7.75;5.70;;;14.10;84.40;;;;;;5022668;28;20823;-68
2022/10/14 06:38:28;;;;;;;10.25;5.65;;;14.10;84.40;;;;;;5012347;28;20083;-68
2022/10/14 06:40:54;;;;;;;8.75;5.47;;;14.20;84.50;;;;;;4988260;28;20107;-68
2022/10/14 06:43:20;;;;;;;11.80;6.25;;;14.20;84.40;;;;;;4987153;28;20450;-68
2022/10/14 06:45:47;;;;;;;10.15;5.97;;;14.20;84.40;;;;;;5009979;28;20127;-69
2022/10/14 06:48:13;;;;;;;7.63;5.25;;;14.20;84.50;;;;;;5024305;28;20587;-69
2022/10/14 06:50:39;;;;;;;11.18;6.30;;;14.20;84.40;;;;;;5011094;28;20022;-68
2022/10/14 06:53:05;;;;;;;8.40;6.07;;;14.20;84.40;;;;;;5009112;28;20050;-69
2022/10/14 06:55:30;;;;;;;11.27;6.20;;;14.30;84.40;;;;;;5009405;28;20072;-67
2022/10/14 06:57:57;;;;;;;9.35;5.43;;;14.30;84.40;;;;;;4996537;28;20500;-68
2022/10/14 07:00:22;;;;;;;10.70;6.53;;;14.30;84.50;;;;;;5016175;28;20109;-68
2022/10/14 07:02:48;;;;;;;8.32;5.65;;;14.40;84.50;;;;;;5008784;28;20113;-67
2022/10/14 07:05:14;;;;;;;8.88;5.53;;;14.40;84.50;;;;;;4995234;28;20038;-68
2022/10/14 07:07:39;;;;;;;8.18;5.70;;;14.40;84.50;;;;;;4994365;28;20034;-68
2022/10/14 07:10:05;;;;;;;6.53;4.80;;;14.40;84.40;;;;;;5014692;28;20038;-68
2022/10/14 07:12:31;;;;;;;6.07;4.57;;;14.40;84.50;;;;;;4991155;28;20068;-69
2022/10/14 07:14:57;;;;;;;8.43;4.82;;;14.50;84.60;;;;;;5000068;28;20057;-69
2022/10/14 07:17:22;;;;;;;6.75;4.38;;;14.50;84.70;;;;;;5018560;28;20112;-67
2022/10/14 07:19:48;;;;;;;7.13;5.32;;;14.60;84.70;;;;;;5000233;28;20038;-68
2022/10/14 07:22:16;;;;;;;7.78;5.28;;;14.50;84.70;;;;;;5010224;28;20117;-68
2022/10/14 07:24:42;;;;;;;8.07;5.28;;;14.60;84.70;;;;;;5005593;28;20046;-67
2022/10/14 07:27:08;;;;;;;6.50;4.55;;;14.60;84.70;;;;;;4979172;28;20025;-68
2022/10/14 07:29:34;;;;;;;5.10;3.90;;;14.70;84.70;;;;;;5012369;28;20549;-70
2022/10/14 07:32:00;;;;;;;10.40;5.15;;;14.70;84.60;;;;;;5013378;28;20100;-70
2022/10/14 07:34:26;;;;;;;7.95;4.40;;;14.70;84.60;;;;;;4994381;28;20034;-70
2022/10/14 07:36:51;;;;;;;14.10;5.28;;;14.80;84.60;;;;;;4994623;28;20173;-70
2022/10/14 07:39:17;;;;;;;6.82;4.65;;;14.80;84.80;;;;;;5011828;28;20112;-70
2022/10/14 07:41:43;;;;;;;5.45;3.97;;;14.80;84.80;;;;;;4995085;28;20458;-70
2022/10/14 07:44:12;;;;;;;7.90;4.45;;;14.80;84.70;;;;;;5013401;28;20029;-69
2022/10/14 07:46:40;;;;;;;5.30;3.53;;;14.80;84.80;;;;;;5017214;28;20037;-70
2022/10/14 07:49:09;;;;;;;6.10;4.00;;;14.80;84.80;;;;;;5012980;28;20097;-68
2022/10/14 07:51:36;;;;;;;5.65;4.05;;;14.80;84.90;;;;;;5024778;28;20030;-70
2022/10/14 07:54:04;;;;;;;3.88;3.25;;;14.90;85.30;;;;;;4994263;28;20057;-70
2022/10/14 07:56:30;;;;;;;6.03;3.95;;;14.90;85.40;;;;;;5019254;28;20089;-70
2022/10/14 07:58:57;;;;;;;6.18;3.72;;;14.90;85.60;;;;;;4994222;28;20478;-69
2022/10/14 08:01:23;;;;;;;4.22;2.65;;;14.90;85.60;;;;;;5018605;28;20053;-69
2022/10/14 08:03:49;;;;;;;6.20;3.28;;;14.90;85.50;;;;;;5012839;28;20041;-69
2022/10/14 08:06:15;;;;;;;4.70;3.20;;;15.00;85.40;;;;;;5011302;28;20045;-70
2022/10/14 08:08:42;;;;;;;4.00;2.95;;;15.00;85.40;;;;;;5016362;28;20409;-70
2022/10/14 08:11:31;;;;;;;4.28;3.03;;;15.00;85.40;;;;;;5005803;28;20435;-70
2022/10/14 08:13:57;;;;;;;4.28;2.72;;;15.00;85.50;;;;;;5019310;28;20324;-69
2022/10/14 08:16:30;;;;;;;3.03;2.72;;;15.00;85.50;;;;;;5011662;28;20454;-68
2022/10/14 08:18:57;;;;;;;3.83;2.72;;;15.10;85.60;;;;;;5012956;28;20063;-69
2022/10/14 08:21:26;;;;;;;2.60;2.20;;;15.10;85.50;;;;;;5015691;28;20030;-69
2022/10/14 08:23:53;;;;;;;3.88;2.70;;;15.10;85.50;;;;;;5001441;28;20072;-66
2022/10/14 08:26:28;;;;;;;7.35;3.05;;;15.10;85.50;;;;;;4995234;28;20513;-67
2022/10/14 08:28:54;;;;;;;3.58;2.85;;;15.10;85.60;;;;;;5010277;28;20033;-67
2022/10/14 08:31:21;;;;;;;3.97;2.53;;;15.10;85.60;;;;;;5003849;28;20028;-69
2022/10/14 08:33:46;;;;;;;3.65;2.03;;;15.20;85.50;;;;;;5013480;28;20040;-69
2022/10/14 08:36:13;;;;;;;2.47;2.13;;;15.20;85.50;;;;;;5020279;28;20038;-67
2022/10/14 08:38:39;;;;;;;2.03;1.83;;;15.20;85.50;;;;;;5019259;28;20145;-67
2022/10/14 08:41:30;;;;;;;3.47;1.90;;;15.30;85.60;;;;;;4998139;28;20080;-67
2022/10/14 08:44:21;;;;;;;2.67;2.43;;;15.20;85.50;;;;;;5007734;28;20511;-67
2022/10/14 08:46:56;;;;;;;3.08;2.03;;;15.30;85.70;;;;;;5005865;28;20077;-67
2022/10/14 08:49:46;;;;;;;2.33;2.00;;;15.30;85.80;;;;;;4993032;28;20116;-67
2022/10/14 08:52:21;;;;;;;5.32;1.92;;;15.30;85.70;;;;;;5022113;28;20030;-68
2022/10/14 08:55:04;;;;;;;1.77;1.60;;;15.30;85.80;;;;;;4999759;28;20044;-67
2022/10/14 08:57:45;;;;;;;1.77;1.67;;;15.30;85.80;;;;;;5013677;28;20562;-67
2022/10/14 09:00:12;;;;;;;3.40;1.85;;;15.30;85.70;;;;;;5017046;28;20034;-68
2022/10/14 09:02:46;;;;;;;3.03;1.98;;;15.30;85.60;;;;;;5014723;28;20030;-68
2022/10/14 09:05:17;;;;;;;3.00;1.83;;;15.40;85.70;;;;;;4998512;28;20034;-68
2022/10/14 09:07:44;;;;;;;1.92;1.65;;;15.40;85.60;;;;;;5010459;28;20097;-68
2022/10/14 09:10:24;;;;;;;3.33;1.95;;;15.40;85.60;;;;;;5004693;28;20371;-69
2022/10/14 09:12:52;;;;;;;1.85;1.65;;;15.50;85.70;;;;;;5006150;28;20334;-68
2022/10/14 09:15:29;;;;;;;3.05;1.80;;;15.50;85.70;;;;;;4992111;28;20038;-68
2022/10/14 09:18:15;;;;;;;2.60;2.17;;;15.50;85.70;;;;;;5008773;28;20053;-69
2022/10/14 09:20:43;;;;;;;2.13;1.75;;;15.50;85.70;;;;;;5010707;28;20066;-70
2022/10/14 09:23:14;;;;;;;2.25;1.65;;;15.50;85.70;;;;;;5006095;28;20032;-70
2022/10/14 09:25:47;;;;;;;3.28;1.90;;;15.50;85.80;;;;;;5003578;28;20056;-67
2022/10/14 09:28:13;;;;;;;2.63;2.10;;;15.50;85.80;;;;;;5000536;28;20022;-69
2022/10/14 09:30:39;;;;;;;2.03;1.38;;;15.60;86.10;;;;;;4997693;28;20041;-67
2022/10/14 09:33:08;;;;;;;2.67;2.05;;;15.60;86.20;;;;;;5010050;28;20026;-67
2022/10/14 09:35:41;;;;;;;2.17;1.50;;;15.60;86.10;;;;;;5003420;28;20061;-69
2022/10/14 09:38:07;;;;;;;2.63;1.92;;;15.60;86.00;;;;;;5003129;28;20030;-69
2022/10/14 09:40:44;;;;;;;3.00;1.85;;;15.60;86.20;;;;;;5010374;28;20034;-69
2022/10/14 09:43:09;;;;;;;2.03;1.67;;;15.70;86.10;;;;;;5003389;28;20520;-69
2022/10/14 09:45:47;;;;;;;3.35;1.70;;;15.70;86.10;;;;;;5010478;28;20029;-70
2022/10/14 09:48:43;;;;;;;2.00;1.63;;;15.70;86.00;;;;;;5003027;28;20030;-70
2022/10/14 09:51:24;;;;;;;2.97;1.83;;;15.80;86.00;;;;;;5004102;28;20038;-68
2022/10/14 09:53:53;;;;;;;2.50;1.80;;;15.70;86.00;;;;;;5010334;28;20057;-70
2022/10/14 09:56:36;;;;;;;1.92;1.67;;;15.80;86.00;;;;;;5010338;28;20030;-70
2022/10/14 09:59:21;;;;;;;2.90;1.70;;;15.80;85.90;;;;;;5010009;28;20030;-70
2022/10/14 10:01:52;;;;;;;3.15;1.90;;;15.80;85.80;;;;;;5010445;28;20045;-70
2022/10/14 10:04:29;;;;;;;1.60;1.50;;;15.90;86.30;;;;;;5009916;28;20026;-69
2022/10/14 10:06:55;;;;;;;2.30;1.67;;;15.90;86.20;;;;;;5010012;28;20014;-69
2022/10/14 10:09:21;;;;;;;2.95;1.55;;;15.90;86.20;;;;;;4992252;28;20030;-69
2022/10/14 10:11:47;;;;;;;2.42;1.67;;;15.90;86.10;;;;;;5005007;28;20046;-69
2022/10/14 10:14:24;;;;;;;3.78;2.08;;;15.90;86.10;;;;;;5010395;28;20433;-69
2022/10/14 10:17:11;;;;;;;2.13;1.85;;;16.00;86.30;;;;;;4995247;28;20034;-69
2022/10/14 10:19:44;;;;;;;1.08;0.98;;;16.00;86.40;;;;;;5009793;28;20038;-69
2022/10/14 10:22:19;;;;;;;2.45;2.00;;;16.00;86.40;;;;;;4992185;28;20084;-69
2022/10/14 10:25:04;;;;;;;2.60;1.35;;;16.00;86.20;;;;;;4992277;28;20046;-69
2022/10/14 10:27:34;;;;;;;1.73;1.38;;;16.10;86.20;;;;;;5010335;28;20053;-69
2022/10/14 10:30:14;;;;;;;2.85;1.83;;;16.10;86.00;;;;;;5009443;28;20022;-69
2022/10/14 10:33:09;;;;;;;1.70;1.48;;;16.10;86.10;;;;;;5005268;28;20455;-67
2022/10/14 10:36:14;;;;;;;1.95;1.70;;;16.10;86.10;;;;;;5010026;28;20053;-67
2022/10/14 10:39:01;;;;;;;2.03;1.83;;;16.10;86.20;;;;;;4994397;28;20085;-68
2022/10/14 10:42:05;;;;;;;1.45;1.35;;;16.10;86.20;;;;;;4990434;28;20034;-69
2022/10/14 10:44:44;;;;;;;1.67;1.30;;;16.10;86.30;;;;;;5009598;28;20069;-68
2022/10/14 10:47:31;;;;;;;1.30;1.02;;;16.20;86.40;;;;;;5010577;28;20037;-67
2022/10/14 10:50:26;;;;;;;2.45;2.05;;;16.20;86.20;;;;;;5009437;28;20049;-67
2022/10/14 10:53:04;;;;;;;2.97;1.95;;;16.30;86.20;;;;;;4985445;28;20042;-67
2022/10/14 10:55:52;;;;;;;2.03;1.75;;;16.30;86.30;;;;;;5007249;28;20041;-68
2022/10/14 10:58:27;;;;;;;2.22;2.03;;;16.30;86.20;;;;;;5003604;28;20030;-68
2022/10/14 11:01:11;;;;;;;1.75;1.50;;;16.30;86.20;;;;;;5008223;28;20032;-68
2022/10/14 11:03:53;;;;;;;2.30;1.80;;;16.40;86.20;;;;;;5006744;28;20034;-68
2022/10/14 11:12:23;;;;;;;1.58;1.48;;;16.50;86.10;;;;;;5004509;28;20049;-68
2022/10/14 11:15:10;;;;;;;1.95;1.50;;;16.60;86.10;;;;;;5001897;28;20125;-68
2022/10/14 11:17:44;;;;;;;3.65;2.72;;;16.60;85.90;;;;;;4998856;28;20106;-67
2022/10/14 11:20:35;;;;;;;1.83;1.52;;;16.60;85.70;;;;;;4996519;28;20030;-68
2022/10/14 11:23:33;;;;;;;1.92;1.83;;;16.60;85.80;;;;;;4992754;28;20061;-67
2022/10/14 11:26:05;;;;;;;3.80;2.15;;;16.60;85.80;;;;;;5004547;28;20045;-68
2022/10/14 11:28:58;;;;;;;2.50;2.30;;;16.60;86.00;;;;;;5006330;28;20030;-67
2022/10/14 11:31:50;;;;;;;2.92;2.00;;;16.60;85.90;;;;;;4989649;28;20045;-67
2022/10/14 11:34:30;;;;;;;3.70;2.60;;;16.60;86.00;;;;;;4992069;28;20041;-67
2022/10/14 11:37:11;;;;;;;3.33;1.90;;;16.50;85.90;;;;;;4996659;28;20033;-67
2022/10/14 11:39:40;;;;;;;2.45;2.22;;;16.50;86.10;;;;;;4994141;28;20042;-67
2022/10/14 11:42:30;;;;;;;2.47;2.13;;;16.50;86.20;;;;;;4994417;28;20399;-67
2022/10/14 11:45:23;;;;;;;2.63;2.15;;;16.50;86.20;;;;;;4993060;28;20106;-67
2022/10/14 11:47:51;;;;;;;2.17;1.92;;;16.50;86.10;;;;;;4997668;28;20022;-68
2022/10/14 11:50:21;;;;;;;3.28;1.92;;;16.50;86.20;;;;;;5003287;28;20026;-68
2022/10/14 11:53:12;;;;;;;2.10;1.67;;;16.50;86.10;;;;;;4997494;28;20057;-68
2022/10/14 11:55:42;;;;;;;2.40;1.55;;;16.50;86.00;;;;;;4972257;28;20548;-68
2022/10/14 11:58:19;;;;;;;2.13;1.92;;;16.50;86.00;;;;;;5002001;28;20488;-68
2022/10/14 12:00:50;;;;;;;2.60;1.65;;;16.50;86.20;;;;;;4986033;28;20705;-68
2022/10/14 12:03:18;;;;;;;1.77;1.50;;;16.50;86.20;;;;;;4979930;28;20097;-68
2022/10/14 12:06:05;;;;;;;1.83;1.42;;;16.50;86.20;;;;;;5001969;28;20057;-68
2022/10/14 12:09:02;;;;;;;1.73;1.60;;;16.60;86.30;;;;;;5005360;28;20030;-68
2022/10/14 12:11:48;;;;;;;1.40;1.30;;;16.60;86.30;;;;;;4985362;28;20703;-67
2022/10/14 12:14:29;;;;;;;6.95;2.00;;;16.60;86.30;;;;;;4991886;28;20113;-67
2022/10/14 12:16:56;;;;;;;1.90;1.70;;;16.60;86.40;;;;;;4991709;28;20030;-68
2022/10/14 12:19:25;;;;;;;1.83;1.30;;;16.50;86.40;;;;;;4992742;28;20401;-67
2022/10/14 12:22:01;;;;;;;2.90;1.48;;;16.50;86.40;;;;;;5005767;28;20022;-69
2022/10/14 12:24:37;;;;;;;2.65;1.70;;;16.50;86.60;;;;;;5008199;28;20042;-68
2022/10/14 12:27:09;;;;;;;1.90;1.23;;;16.50;86.60;;;;;;5005936;28;20046;-68
2022/10/14 12:29:39;;;;;;;1.45;1.27;;;16.50;86.60;;;;;;5007007;28;20532;-68
2022/10/14 12:32:30;;;;;;;1.35;1.05;;;16.60;86.70;;;;;;4990658;28;20014;-68
2022/10/14 12:35:00;;;;;;;1.45;1.00;;;16.60;86.60;;;;;;5007107;28;20160;-69
2022/10/14 12:37:50;;;;;;;1.10;1.00;;;16.60;86.60;;;;;;5009239;28;20041;-68
2022/10/14 12:40:23;;;;;;;1.45;1.35;;;16.60;86.50;;;;;;5003757;28;20377;-69
2022/10/14 12:42:56;;;;;;;0.82;0.82;;;16.60;86.90;;;;;;4993721;28;20112;-69
2022/10/14 12:45:25;;;;;;;1.00;1.00;;;16.60;86.90;;;;;;5011474;28;20556;-68
2022/10/14 12:48:20;;;;;;;3.30;1.33;;;16.60;86.90;;;;;;5011158;28;20633;-69
2022/10/14 12:50:48;;;;;;;2.10;0.90;;;16.70;86.90;;;;;;5010336;28;20036;-69
2022/10/14 12:53:28;;;;;;;1.45;0.80;;;16.70;86.90;;;;;;5011727;28;20033;-69
2022/10/14 12:55:59;;;;;;;0.98;0.93;;;16.70;86.80;;;;;;5011125;28;20654;-69
2022/10/14 12:58:36;;;;;;;0.95;0.85;;;16.80;86.80;;;;;;5010143;28;20087;-69
2022/10/14 13:01:16;;;;;;;1.30;0.60;;;16.80;86.80;;;;;;5010034;28;20046;-68
2022/10/14 13:03:51;;;;;;;0.95;0.68;;;16.80;86.80;;;;;;5011658;28;20393;-69
2022/10/14 13:06:37;;;;;;;1.35;0.80;;;16.80;86.90;;;;;;5007984;28;20503;-69
2022/10/14 13:09:11;;;;;;;0.60;0.60;;;16.80;86.90;;;;;;4997871;28;20441;-69